createdAt,value
2022-08-07T00:00:28.222Z,77.22
2022-08-07T00:03:09.278Z,77.01
2022-08-07T00:05:38.061Z,77.18
2022-08-07T00:08:07.822Z,77.20
2022-08-07T00:10:47.895Z,76.97
2022-08-07T00:13:26.678Z,77.27
2022-08-07T00:15:55.595Z,77.63
2022-08-07T00:18:27.028Z,77.58
2022-08-07T00:21:01.904Z,77.64
2022-08-07T00:23:33.549Z,77.41
2022-08-07T00:26:12.820Z,77.42
2022-08-07T00:28:55.347Z,77.48
2022-08-07T00:31:37.167Z,77.63
2022-08-07T00:34:08.797Z,77.61
2022-08-07T00:36:42.911Z,77.65
2022-08-07T00:39:16.472Z,77.60
2022-08-07T00:42:01.742Z,77.66
2022-08-07T00:44:34.902Z,77.87
2022-08-07T00:47:16.013Z,78.12
2022-08-07T00:50:19.248Z,77.91
2022-08-07T00:52:47.469Z,78.07
2022-08-07T00:55:17.438Z,78.11
2022-08-07T00:57:55.534Z,78.23
2022-08-07T01:00:25.374Z,78.26
2022-08-07T01:02:54.778Z,78.31
2022-08-07T01:05:24.533Z,78.08
2022-08-07T01:07:53.009Z,78.00
2022-08-07T01:10:23.713Z,78.41
2022-08-07T01:12:54.686Z,78.19
2022-08-07T01:15:35.664Z,78.25
2022-08-07T01:18:16.800Z,77.98
2022-08-07T01:20:57.444Z,78.12
2022-08-07T01:23:38.586Z,78.27
2022-08-07T01:26:13.646Z,78.57
2022-08-07T01:28:51.838Z,78.37
2022-08-07T01:31:42.811Z,78.48
2022-08-07T01:34:18.885Z,78.38
2022-08-07T01:36:52.924Z,78.32
2022-08-07T01:39:40.342Z,78.42
2022-08-07T01:42:38.598Z,78.48
2022-08-07T01:45:17.830Z,78.50
2022-08-07T01:48:20.695Z,78.73
2022-08-07T01:50:43.030Z,78.63
2022-08-07T01:53:21.094Z,78.54
2022-08-07T01:56:01.848Z,78.84
2022-08-07T01:58:41.029Z,78.41
2022-08-07T02:01:25.318Z,78.41
2022-08-07T02:04:16.200Z,78.68
2022-08-07T02:06:48.895Z,78.39
2022-08-07T02:09:33.904Z,78.87
2022-08-07T02:12:29.073Z,78.38
2022-08-07T02:15:01.603Z,78.65
2022-08-07T02:17:49.555Z,78.63
2022-08-07T02:20:23.837Z,78.69
2022-08-07T02:23:00.118Z,78.37
2022-08-07T02:25:32.223Z,78.65
2022-08-07T02:28:24.756Z,78.95
2022-08-07T02:30:56.334Z,78.43
2022-08-07T02:33:42.000Z,78.58
2022-08-07T02:36:30.487Z,78.66
2022-08-07T02:39:15.980Z,78.32
2022-08-07T02:41:54.418Z,78.64
2022-08-07T02:44:26.877Z,78.68
2022-08-07T02:47:00.778Z,78.41
2022-08-07T02:49:57.433Z,78.54
2022-08-07T02:52:30.968Z,78.55
2022-08-07T02:55:28.287Z,78.66
2022-08-07T02:58:12.009Z,78.68
2022-08-07T03:00:46.989Z,78.57
2022-08-07T03:03:21.160Z,78.83
2022-08-07T03:05:53.818Z,78.84
2022-08-07T03:08:26.912Z,78.66
2022-08-07T03:11:00.260Z,78.94
2022-08-07T03:13:39.146Z,78.74
2022-08-07T03:16:22.855Z,78.95
2022-08-07T03:18:57.527Z,79.04
2022-08-07T03:21:26.855Z,79.45
2022-08-07T03:24:19.990Z,79.22
2022-08-07T03:26:58.624Z,79.51
2022-08-07T03:29:46.190Z,79.43
2022-08-07T03:32:49.098Z,79.48
2022-08-07T03:35:43.979Z,79.34
2022-08-07T03:38:21.292Z,79.51
2022-08-07T03:41:01.596Z,79.50
2022-08-07T03:43:33.547Z,79.63
2022-08-07T03:46:18.255Z,79.59
2022-08-07T03:49:02.502Z,79.83
2022-08-07T03:51:47.640Z,79.62
2022-08-07T03:54:35.289Z,79.75
2022-08-07T03:57:08.119Z,79.67
2022-08-07T03:59:37.792Z,79.69
2022-08-07T04:02:15.393Z,79.72
2022-08-07T04:04:45.193Z,79.84
2022-08-07T04:07:17.730Z,79.84
2022-08-07T04:09:53.083Z,79.85
2022-08-07T04:12:28.769Z,79.81
2022-08-07T04:15:00.280Z,79.97
2022-08-07T04:18:31.097Z,80.05
2022-08-07T04:20:19.752Z,80.40
2022-08-07T04:22:53.200Z,80.22
2022-08-07T04:25:23.969Z,80.37
2022-08-07T04:27:59.389Z,80.37
2022-08-07T04:30:35.571Z,80.48
2022-08-07T04:33:18.434Z,80.47
2022-08-07T04:35:51.048Z,80.28
2022-08-07T04:38:22.224Z,80.48
2022-08-07T04:40:52.722Z,80.43
2022-08-07T04:44:12.889Z,80.45
2022-08-07T04:47:04.210Z,80.43
2022-08-07T04:50:04.240Z,80.43
2022-08-07T04:52:52.427Z,80.25
2022-08-07T04:58:14.632Z,80.26
2022-08-07T04:59:18.302Z,80.23
2022-08-07T05:02:06.478Z,80.27
2022-08-07T05:05:52.163Z,80.32
2022-08-07T05:08:45.855Z,80.20
2022-08-07T05:11:24.554Z,80.08
2022-08-07T05:14:55.794Z,80.10
2022-08-07T05:16:54.178Z,80.10
2022-08-07T05:19:44.106Z,80.25
2022-08-07T05:22:26.804Z,80.08
2022-08-07T05:25:00.529Z,80.10
2022-08-07T05:28:03.163Z,80.26
2022-08-07T05:30:29.988Z,80.33
2022-08-07T05:33:02.345Z,80.15
2022-08-07T05:35:42.263Z,80.45
2022-08-07T05:38:12.778Z,80.06
2022-08-07T05:41:21.733Z,80.19
2022-08-07T05:44:11.648Z,80.21
2022-08-07T05:46:43.741Z,80.13
2022-08-07T05:49:14.267Z,80.31
2022-08-07T05:51:47.202Z,80.28
2022-08-07T05:54:31.248Z,80.19
2022-08-07T05:57:09.410Z,80.41
2022-08-07T05:59:57.199Z,80.57
2022-08-07T06:02:31.427Z,80.10
2022-08-07T06:05:15.778Z,80.30
2022-08-07T06:08:05.361Z,80.20
2022-08-07T06:10:38.830Z,80.35
2022-08-07T06:13:13.323Z,80.46
2022-08-07T06:15:45.736Z,80.41
2022-08-07T06:18:22.367Z,80.47
2022-08-07T06:22:12.512Z,80.62
2022-08-07T06:24:37.886Z,80.15
2022-08-07T06:26:33.988Z,80.16
2022-08-07T06:29:04.186Z,79.88
2022-08-07T06:31:38.503Z,79.10
2022-08-07T06:34:19.831Z,78.89
2022-08-07T06:36:51.889Z,78.42
2022-08-07T06:40:13.719Z,77.23
2022-08-07T06:42:19.549Z,77.52
2022-08-07T06:45:19.501Z,77.25
2022-08-07T06:47:58.798Z,77.29
2022-08-07T06:50:43.387Z,75.87
2022-08-07T06:55:28.865Z,75.56
2022-08-07T06:56:15.490Z,75.11
2022-08-07T07:00:13.246Z,73.81
2022-08-07T07:01:41.985Z,74.12
2022-08-07T07:04:27.990Z,74.28
2022-08-07T07:07:10.694Z,73.71
2022-08-07T07:09:49.175Z,72.01
2022-08-07T07:12:41.823Z,72.25
2022-08-07T07:15:24.023Z,68.71
2022-08-07T07:18:47.022Z,69.10
2022-08-07T07:21:19.813Z,67.91
2022-08-07T07:24:08.192Z,69.70
2022-08-07T07:26:41.218Z,66.62
2022-08-07T07:29:56.342Z,67.44
2022-08-07T07:32:16.852Z,67.55
2022-08-07T07:34:48.616Z,66.97
2022-08-07T07:37:45.216Z,65.16
2022-08-07T07:40:16.450Z,63.98
2022-08-07T07:42:47.292Z,64.26
2022-08-07T07:46:35.490Z,62.40
2022-08-07T07:48:34.779Z,63.05
2022-08-07T07:51:07.522Z,61.18
2022-08-07T07:53:51.238Z,59.14
2022-08-07T07:56:30.491Z,58.57
2022-08-07T07:59:01.891Z,59.23
2022-08-07T08:02:02.378Z,58.55
2022-08-07T08:04:27.512Z,57.86
2022-08-07T08:06:56.484Z,57.76
2022-08-07T08:09:31.896Z,58.52
2022-08-07T08:12:51.264Z,56.71
2022-08-07T08:15:09.929Z,57.29
2022-08-07T08:17:58.088Z,57.53
2022-08-07T08:20:32.061Z,57.30
2022-08-07T08:23:21.088Z,56.87
2022-08-07T08:26:19.769Z,57.16
2022-08-07T08:28:51.990Z,56.99
2022-08-07T08:31:59.193Z,57.65
2022-08-07T08:34:26.994Z,56.95
2022-08-07T08:36:58.442Z,56.25
2022-08-07T08:39:39.867Z,57.17
2022-08-07T08:42:27.802Z,57.52
2022-08-07T08:45:04.192Z,57.66
2022-08-07T08:48:02.582Z,57.06
2022-08-07T08:50:44.734Z,56.92
2022-08-07T08:53:29.393Z,56.46
2022-08-07T08:56:03.110Z,57.22
2022-08-07T08:58:57.933Z,57.68
2022-08-07T09:01:58.551Z,57.36
2022-08-07T09:05:06.195Z,57.08
2022-08-07T09:07:46.203Z,57.75
2022-08-07T09:10:38.009Z,57.11
2022-08-07T09:13:37.557Z,57.13
2022-08-07T09:16:22.697Z,56.96
2022-08-07T09:18:58.601Z,57.41
2022-08-07T09:22:09.683Z,57.56
2022-08-07T09:25:00.365Z,57.72
2022-08-07T09:28:00.436Z,57.77
2022-08-07T09:30:37.478Z,58.03
2022-08-07T09:33:40.706Z,57.73
2022-08-07T09:36:28.581Z,58.29
2022-08-07T09:39:55.207Z,57.89
2022-08-07T09:42:41.745Z,58.17
2022-08-07T09:47:52.709Z,57.66
2022-08-07T09:48:12.255Z,57.97
2022-08-07T09:52:10.926Z,57.71
2022-08-07T09:54:27.254Z,57.54
2022-08-07T09:57:14.515Z,57.47
2022-08-07T10:00:00.262Z,57.35
2022-08-07T10:03:08.511Z,57.46
2022-08-07T10:06:25.714Z,57.55
2022-08-07T10:09:05.436Z,57.93
2022-08-07T10:12:11.787Z,57.88
2022-08-07T10:15:03.997Z,57.47
2022-08-07T10:18:01.403Z,57.99
2022-08-07T10:20:50.357Z,57.80
2022-08-07T10:24:05.725Z,57.84
2022-08-07T10:27:12.646Z,58.26
2022-08-07T10:29:53.275Z,58.16
2022-08-07T10:32:51.161Z,57.94
2022-08-07T10:35:55.507Z,57.81
2022-08-07T10:38:36.088Z,57.97
2022-08-07T10:41:51.862Z,57.95
2022-08-07T10:44:45.494Z,57.83
2022-08-07T10:47:53.374Z,58.07
2022-08-07T10:50:29.737Z,58.12
2022-08-07T10:53:08.921Z,58.25
2022-08-07T10:55:50.595Z,58.16
2022-08-07T10:58:49.696Z,58.16
2022-08-07T11:01:35.678Z,57.74
2022-08-07T11:04:37.802Z,57.65
2022-08-07T11:07:56.092Z,57.15
2022-08-07T11:10:21.674Z,57.46
2022-08-07T11:14:41.966Z,57.31
2022-08-07T11:16:10.461Z,57.84
2022-08-07T11:18:38.557Z,57.03
2022-08-07T11:21:32.258Z,57.03
2022-08-07T11:24:39.495Z,56.87
2022-08-07T11:28:00.924Z,56.50
2022-08-07T11:30:19.293Z,56.41
2022-08-07T11:33:59.548Z,56.21
2022-08-07T11:36:41.296Z,56.80
2022-08-07T11:40:00.631Z,56.14
2022-08-07T11:42:29.386Z,55.94
2022-08-07T11:45:35.495Z,56.29
2022-08-07T11:48:31.654Z,56.19
2022-08-07T11:51:35.069Z,55.48
2022-08-07T11:54:54.629Z,55.06
2022-08-07T11:57:58.185Z,54.38
2022-08-07T12:00:20.052Z,54.71
2022-08-07T12:03:41.456Z,54.42
2022-08-07T12:06:37.532Z,54.45
2022-08-07T12:09:47.108Z,54.71
2022-08-07T12:12:25.413Z,54.34
2022-08-07T12:15:17.333Z,53.99
2022-08-07T12:18:16.172Z,53.69
2022-08-07T12:21:14.927Z,54.06
2022-08-07T12:24:05.419Z,53.50
2022-08-07T12:26:49.432Z,53.49
2022-08-07T12:29:38.955Z,53.37
2022-08-07T12:32:18.381Z,53.40
2022-08-07T12:34:53.429Z,52.85
2022-08-07T12:37:28.358Z,52.05
2022-08-07T12:40:46.709Z,51.88
2022-08-07T12:44:03.674Z,52.19
2022-08-07T12:46:26.482Z,51.98
2022-08-07T12:49:25.340Z,51.88
2022-08-07T12:52:18.108Z,52.02
2022-08-07T12:55:05.469Z,52.17
2022-08-07T12:58:00.335Z,52.52
2022-08-07T13:00:41.625Z,52.34
2022-08-07T13:03:53.526Z,51.42
2022-08-07T13:07:01.169Z,51.71
2022-08-07T13:10:19.561Z,51.66
2022-08-07T13:12:59.827Z,51.78
2022-08-07T13:16:06.711Z,51.92
2022-08-07T13:19:00.975Z,51.80
2022-08-07T13:21:54.315Z,52.00
2022-08-07T13:24:54.270Z,52.06
2022-08-07T13:28:12.514Z,51.35
2022-08-07T13:30:41.358Z,50.12
2022-08-07T13:34:31.828Z,50.69
2022-08-07T13:36:08.549Z,50.90
2022-08-07T13:39:02.827Z,50.91
2022-08-07T13:41:42.317Z,50.85
2022-08-07T13:44:12.952Z,50.48
2022-08-07T13:46:49.706Z,50.96
2022-08-07T13:50:32.844Z,50.80
2022-08-07T13:52:31.743Z,50.30
2022-08-07T13:54:58.208Z,50.26
2022-08-07T13:57:37.639Z,50.19
2022-08-07T14:00:13.352Z,49.34
2022-08-07T14:02:58.713Z,49.06
2022-08-07T14:05:37.335Z,48.79
2022-08-07T14:08:09.009Z,48.50
2022-08-07T14:10:41.976Z,48.84
2022-08-07T14:13:18.685Z,49.10
2022-08-07T14:15:56.907Z,49.14
2022-08-07T14:18:57.367Z,49.46
2022-08-07T14:22:04.161Z,49.80
2022-08-07T14:24:49.632Z,49.68
2022-08-07T14:28:11.801Z,49.95
2022-08-07T14:30:32.745Z,50.02
2022-08-07T14:33:04.733Z,49.86
2022-08-07T14:35:44.746Z,49.95
2022-08-07T14:38:26.665Z,49.96
2022-08-07T14:41:04.318Z,49.45
2022-08-07T14:46:32.050Z,49.04
2022-08-07T14:52:04.989Z,48.66
2022-08-07T14:54:41.939Z,48.39
2022-08-07T14:57:19.259Z,47.87
2022-08-07T15:00:05.465Z,47.96
2022-08-07T15:02:39.253Z,48.35
2022-08-07T15:05:20.269Z,48.08
2022-08-07T15:07:52.789Z,48.40
2022-08-07T15:10:29.919Z,48.42
2022-08-07T15:13:11.383Z,48.46
2022-08-07T15:15:52.422Z,48.21
2022-08-07T15:25:15.718Z,47.58
2022-08-07T15:27:26.020Z,48.05
2022-08-07T15:30:14.633Z,48.20
2022-08-07T15:32:51.133Z,47.34
2022-08-07T15:36:01.407Z,47.89
2022-08-07T15:44:15.305Z,48.10
2022-08-07T15:46:49.992Z,47.71
2022-08-07T15:50:06.077Z,47.56
2022-08-07T15:52:30.673Z,47.73
2022-08-07T15:55:03.839Z,47.75
2022-08-07T15:57:47.785Z,47.87
2022-08-07T16:00:31.237Z,47.82
2022-08-07T16:03:21.835Z,47.56
2022-08-07T16:05:59.191Z,47.50
2022-08-07T16:08:37.881Z,47.51
2022-08-07T16:11:43.557Z,47.00
2022-08-07T16:14:17.204Z,47.06
2022-08-07T16:17:02.796Z,47.03
2022-08-07T16:19:59.256Z,47.00
2022-08-07T16:22:55.329Z,46.71
2022-08-07T16:25:27.724Z,46.61
2022-08-07T16:29:18.359Z,46.85
2022-08-07T16:31:50.060Z,47.21
2022-08-07T16:34:48.770Z,47.12
2022-08-07T16:38:06.586Z,47.41
2022-08-07T16:40:31.904Z,47.61
2022-08-07T16:44:03.812Z,47.78
2022-08-07T16:47:04.768Z,47.97
2022-08-07T16:50:27.789Z,48.15
2022-08-07T16:53:57.240Z,48.19
2022-08-07T16:56:17.066Z,48.46
2022-08-07T16:59:14.871Z,48.60
2022-08-07T17:02:02.885Z,48.40
2022-08-07T17:04:37.030Z,48.64
2022-08-07T17:07:55.088Z,48.58
2022-08-07T17:10:33.062Z,48.60
2022-08-07T17:13:24.727Z,48.74
2022-08-07T17:16:25.050Z,48.93
2022-08-07T17:19:17.387Z,48.93
2022-08-07T17:22:42.619Z,49.19
2022-08-07T17:25:19.268Z,49.08
2022-08-07T17:27:57.738Z,49.29
2022-08-07T17:30:31.488Z,49.46
2022-08-07T17:34:08.989Z,49.63
2022-08-07T17:36:20.378Z,49.74
2022-08-07T17:39:57.951Z,49.86
2022-08-07T17:42:58.216Z,49.88
2022-08-07T17:45:35.513Z,49.92
2022-08-07T17:48:12.895Z,50.12
2022-08-07T17:51:02.347Z,50.20
2022-08-07T17:54:00.824Z,50.39
2022-08-07T17:56:30.983Z,50.60
2022-08-07T17:59:16.839Z,50.52
2022-08-07T18:02:01.593Z,50.71
2022-08-07T18:04:35.200Z,50.80
2022-08-07T18:07:22.556Z,51.00
2022-08-07T18:10:32.099Z,51.03
2022-08-07T18:13:00.894Z,51.24
2022-08-07T18:15:40.631Z,51.39
2022-08-07T18:18:45.130Z,51.47
2022-08-07T18:21:41.976Z,51.71
2022-08-07T18:24:43.133Z,51.89
2022-08-07T18:27:44.680Z,52.02
2022-08-07T18:30:53.529Z,52.11
2022-08-07T18:33:54.853Z,52.19
2022-08-07T18:36:33.746Z,52.30
2022-08-07T18:40:05.575Z,52.34
2022-08-07T18:42:16.336Z,52.53
2022-08-07T18:45:40.112Z,52.72
2022-08-07T18:49:03.739Z,52.76
2022-08-07T18:51:14.982Z,52.89
2022-08-07T18:53:54.255Z,52.94
2022-08-07T18:56:40.330Z,52.98
2022-08-07T18:59:47.232Z,53.21
2022-08-07T19:02:42.474Z,53.24
2022-08-07T19:06:03.267Z,53.24
2022-08-07T19:08:21.721Z,53.37
2022-08-07T19:11:35.232Z,53.57
2022-08-07T19:14:20.225Z,53.89
2022-08-07T19:17:06.660Z,53.82
2022-08-07T19:19:50.967Z,54.03
2022-08-07T19:22:31.259Z,54.11
2022-08-07T19:25:06.376Z,54.31
2022-08-07T19:28:58.188Z,54.49
2022-08-07T19:31:05.815Z,54.42
2022-08-07T19:33:33.363Z,54.53
2022-08-07T19:36:05.757Z,54.54
2022-08-07T19:38:53.618Z,54.73
2022-08-07T19:41:39.143Z,55.07
2022-08-07T19:44:21.419Z,54.75
2022-08-07T19:46:57.964Z,55.14
2022-08-07T19:49:57.073Z,55.20
2022-08-07T19:52:22.500Z,55.27
2022-08-07T19:54:56.423Z,55.53
2022-08-07T19:58:00.786Z,55.40
2022-08-07T20:00:28.261Z,55.55
2022-08-07T20:03:04.313Z,55.65
2022-08-07T20:06:00.019Z,56.03
2022-08-07T20:08:30.816Z,55.99
2022-08-07T20:11:10.054Z,55.87
2022-08-07T20:13:45.560Z,55.79
2022-08-07T20:16:34.774Z,55.98
2022-08-07T20:19:10.964Z,56.14
2022-08-07T20:21:47.545Z,56.13
2022-08-07T20:24:22.062Z,56.59
2022-08-07T20:26:54.461Z,56.31
2022-08-07T20:29:48.003Z,56.36
2022-08-07T20:32:25.470Z,56.37
2022-08-07T20:34:58.587Z,56.45
2022-08-07T20:37:33.620Z,56.32
2022-08-07T20:40:32.926Z,56.78
2022-08-07T20:43:00.966Z,56.64
2022-08-07T20:46:25.746Z,56.82
2022-08-07T20:48:29.727Z,56.72
2022-08-07T20:51:09.284Z,56.98
2022-08-07T20:54:04.420Z,57.10
2022-08-07T20:56:30.677Z,56.90
2022-08-07T20:59:05.281Z,57.08
2022-08-07T21:01:45.658Z,57.26
2022-08-07T21:04:27.921Z,57.49
2022-08-07T21:07:04.522Z,57.58
2022-08-07T21:09:53.290Z,57.67
2022-08-07T21:12:31.964Z,57.91
2022-08-07T21:15:05.594Z,57.88
2022-08-07T21:18:02.877Z,58.03
2022-08-07T21:20:33.299Z,57.95
2022-08-07T21:23:09.028Z,58.11
2022-08-07T21:25:56.298Z,58.19
2022-08-07T21:28:49.858Z,58.14
2022-08-07T21:31:50.140Z,58.49
2022-08-07T21:34:46.316Z,58.44
2022-08-07T21:37:57.871Z,58.51
2022-08-07T21:40:38.167Z,58.63
2022-08-07T21:43:56.380Z,58.32
2022-08-07T21:46:34.976Z,58.73
2022-08-07T21:49:21.632Z,58.58
2022-08-07T21:52:09.046Z,58.79
2022-08-07T21:55:10.512Z,58.76
2022-08-07T21:57:52.085Z,58.59
2022-08-07T22:00:25.107Z,58.50
2022-08-07T22:03:30.914Z,58.66
2022-08-07T22:06:06.718Z,58.73
2022-08-07T22:08:42.510Z,58.71
2022-08-07T22:11:17.676Z,58.73
2022-08-07T22:13:55.421Z,58.78
2022-08-07T22:16:44.940Z,58.73
2022-08-07T22:19:29.881Z,59.12
2022-08-07T22:22:27.536Z,59.17
2022-08-07T22:25:11.277Z,58.90
2022-08-07T22:28:30.241Z,58.91
2022-08-07T22:31:05.578Z,58.97
2022-08-07T22:33:57.181Z,58.98
2022-08-07T22:36:46.635Z,59.09
2022-08-07T22:40:08.493Z,59.09
2022-08-07T22:42:40.328Z,59.26
2022-08-07T22:46:04.779Z,59.40
2022-08-07T22:48:54.647Z,59.30
2022-08-07T22:51:22.317Z,59.42
2022-08-07T22:54:09.422Z,59.18
2022-08-07T22:56:52.765Z,59.48
2022-08-07T22:59:32.666Z,59.32
2022-08-07T23:02:39.391Z,59.51
2022-08-07T23:06:09.991Z,59.32
2022-08-07T23:08:30.231Z,59.50
2022-08-07T23:11:29.416Z,59.48
2022-08-07T23:14:56.236Z,59.49
2022-08-07T23:17:55.696Z,59.63
2022-08-07T23:20:53.142Z,59.77
2022-08-07T23:24:05.259Z,59.69
2022-08-07T23:26:30.106Z,59.63
2022-08-07T23:29:01.861Z,59.62
2022-08-07T23:32:50.163Z,59.76
2022-08-07T23:34:37.578Z,59.77
2022-08-07T23:37:32.388Z,59.72
2022-08-07T23:40:12.923Z,60.14
2022-08-07T23:43:16.732Z,59.87
2022-08-07T23:46:12.355Z,59.95
2022-08-07T23:49:04.517Z,60.02
2022-08-07T23:53:02.157Z,60.41
2022-08-07T23:54:46.335Z,60.17
2022-08-07T23:57:28.213Z,60.05
